Time;durP1;ratioP1;P1;durP2;ratioP2;P2;SDS_P1;SDS_P2;PMS_P1;PMS_P2;Temp;Humidity;BMP_temperature;BMP_pressure;BME280_temperature;BME280_humidity;BME280_pressure;Samples;Min_cycle;Max_cycle;Signal;HPM_P1;HPM_P2
2021/12/27 00:02:03;;;;;;;108.32;46.70;;;;;;;-8.41;93.41;99494.84;5071790;28;20033;-80
2021/12/27 00:04:28;;;;;;;108.32;46.78;;;;;;;-8.37;93.08;99490.75;5073148;28;20036;-80
2021/12/27 00:06:54;;;;;;;104.57;47.67;;;;;;;-8.43;93.19;99480.47;5072905;28;20033;-80
2021/12/27 00:09:19;;;;;;;108.05;47.92;;;;;;;-8.42;92.74;99480.53;5073388;28;20025;-80
2021/12/27 00:11:44;;;;;;;108.93;47.58;;;;;;;-8.44;93.24;99482.13;5072984;28;20119;-81
2021/12/27 00:14:10;;;;;;;139.73;64.03;;;;;;;-8.59;93.43;99467.44;5073111;28;20364;-81
2021/12/27 00:16:35;;;;;;;132.15;59.13;;;;;;;-8.55;94.00;99481.88;5073044;28;20369;-80
2021/12/27 00:19:01;;;;;;;123.60;50.55;;;;;;;-8.53;93.98;99474.31;5072635;28;20074;-80
2021/12/27 00:21:26;;;;;;;114.82;47.17;;;;;;;-8.52;94.23;99476.03;5072751;28;20036;-80
2021/12/27 00:23:51;;;;;;;113.65;46.97;;;;;;;-8.65;94.03;99454.66;5072616;28;20025;-80
2021/12/27 00:26:17;;;;;;;101.47;46.42;;;;;;;-8.52;93.69;99470.13;5072974;28;20032;-80
2021/12/27 00:28:42;;;;;;;98.85;46.13;;;;;;;-8.55;93.98;99470.91;5071276;28;20387;-80
2021/12/27 00:31:08;;;;;;;96.57;44.20;;;;;;;-8.52;93.36;99467.59;5072765;28;20117;-80
2021/12/27 00:33:33;;;;;;;100.45;45.15;;;;;;;-8.57;93.78;99470.84;5072754;28;20046;-80
2021/12/27 00:35:59;;;;;;;103.25;44.20;;;;;;;-8.56;93.17;99469.19;5070996;28;20500;-81
2021/12/27 00:38:25;;;;;;;90.90;42.13;;;;;;;-8.56;93.21;99475.09;5071062;28;20024;-81
2021/12/27 00:40:50;;;;;;;98.22;44.70;;;;;;;-8.55;93.56;99475.97;5072347;28;20055;-81
2021/12/27 00:43:16;;;;;;;109.47;47.95;;;;;;;-8.59;93.75;99472.50;5072450;28;20028;-81
2021/12/27 00:45:42;;;;;;;111.95;50.08;;;;;;;-8.69;93.61;99454.53;5072439;28;20033;-81
2021/12/27 00:48:07;;;;;;;109.05;46.42;;;;;;;-8.59;93.22;99475.03;5071129;28;20056;-80
2021/12/27 00:50:33;;;;;;;99.65;44.80;;;;;;;-8.58;93.13;99480.94;5049411;28;20606;-81
2021/12/27 00:52:59;;;;;;;98.90;43.90;;;;;;;-8.69;93.16;99465.47;5032958;28;20510;-80
2021/12/27 00:55:24;;;;;;;90.32;41.40;;;;;;;-8.61;92.89;99478.31;5033086;28;20051;-81
2021/12/27 00:57:52;;;;;;;96.03;43.78;;;;;;;-8.60;93.21;99490.97;5032499;28;20095;-80
2021/12/27 01:00:20;;;;;;;96.43;41.13;;;;;;;-8.57;93.09;99490.22;5049692;28;20124;-80
2021/12/27 01:02:46;;;;;;;93.07;43.72;;;;;;;-8.61;93.06;99481.69;5032683;28;20098;-80
2021/12/27 01:05:12;;;;;;;102.88;43.55;;;;;;;-8.65;92.82;99479.88;5049684;28;20051;-80
2021/12/27 01:07:39;;;;;;;99.97;44.55;;;;;;;-8.66;92.98;99485.75;5049638;28;20033;-81
2021/12/27 01:17:45;;;;;;;92.90;41.75;;;;;;;-8.71;92.62;99487.31;5049489;28;19919;-81
2021/12/27 01:20:16;;;;;;;97.10;44.15;;;;;;;-8.97;92.98;99442.81;5049393;28;20029;-81
2021/12/27 01:22:42;;;;;;;104.45;43.58;;;;;;;-8.95;92.61;99448.78;5069689;28;20060;-81
2021/12/27 01:25:10;;;;;;;106.75;53.13;;;;;;;-8.87;92.90;99467.50;5071810;28;20466;-80
2021/12/27 01:27:35;;;;;;;107.25;47.50;;;;;;;-8.93;93.41;99459.75;5071884;28;20035;-80
2021/12/27 01:30:03;;;;;;;113.85;46.53;;;;;;;-8.87;92.81;99467.50;5071586;28;20056;-81
2021/12/27 01:32:34;;;;;;;109.15;45.03;;;;;;;-8.90;93.54;99469.94;5071731;28;20422;-81
2021/12/27 01:34:59;;;;;;;113.70;46.30;;;;;;;-9.09;92.97;99458.47;5071950;28;20068;-80
2021/12/27 01:37:25;;;;;;;107.05;46.13;;;;;;;-9.15;93.14;99436.44;5071764;28;20107;-81
2021/12/27 01:39:50;;;;;;;94.00;44.67;;;;;;;-8.95;93.31;99472.34;5070343;28;20028;-81
2021/12/27 01:42:16;;;;;;;105.13;44.88;;;;;;;-8.96;93.44;99465.59;5070437;28;20021;-80
2021/12/27 01:44:41;;;;;;;95.93;41.60;;;;;;;-8.92;92.75;99471.56;5072129;28;20105;-80
2021/12/27 01:47:09;;;;;;;110.25;48.25;;;;;;;-9.09;92.92;99439.16;5070327;28;20025;-81
2021/12/27 01:49:34;;;;;;;93.75;40.47;;;;;;;-8.85;92.72;99455.78;5070488;28;20028;-81
2021/12/27 01:52:00;;;;;;;90.13;40.30;;;;;;;-9.01;92.36;99429.28;5070223;28;20081;-81
2021/12/27 01:54:25;;;;;;;89.25;37.25;;;;;;;-8.79;91.57;99448.38;5071723;28;20456;-80
2021/12/27 01:56:52;;;;;;;90.95;38.85;;;;;;;-8.77;91.83;99445.88;5071161;28;20452;-80
2021/12/27 01:59:18;;;;;;;85.50;37.40;;;;;;;-8.85;91.85;99443.16;5071466;28;20036;-80
2021/12/27 02:01:44;;;;;;;84.38;36.70;;;;;;;-8.90;92.27;99432.09;5072133;28;20155;-81
2021/12/27 02:04:09;;;;;;;95.05;39.60;;;;;;;-8.84;92.46;99448.25;5074507;28;20120;-81
2021/12/27 02:06:35;;;;;;;87.05;39.72;;;;;;;-8.85;92.27;99445.69;5075687;28;20029;-80
2021/12/27 02:09:00;;;;;;;89.30;40.40;;;;;;;-8.85;91.89;99445.69;5075330;28;20032;-80
2021/12/27 02:11:26;;;;;;;106.25;45.58;;;;;;;-8.91;92.31;99427.84;5075450;28;20025;-80
2021/12/27 02:13:52;;;;;;;90.10;40.25;;;;;;;-8.81;91.99;99443.28;5073741;28;20127;-80
2021/12/27 02:16:20;;;;;;;92.18;40.38;;;;;;;-8.87;92.26;99429.66;5074196;28;20027;-81
2021/12/27 02:18:48;;;;;;;82.20;38.58;;;;;;;-8.91;92.13;99421.13;5075167;28;20043;-80
2021/12/27 02:21:14;;;;;;;84.25;38.10;;;;;;;-9.00;92.41;99407.44;5073808;28;20501;-81
2021/12/27 02:23:41;;;;;;;92.90;37.33;;;;;;;-9.01;91.88;99424.22;5075186;28;20039;-80
2021/12/27 02:26:08;;;;;;;85.35;39.53;;;;;;;-8.86;92.79;99441.44;5074895;28;20031;-80
2021/12/27 02:28:33;;;;;;;87.57;38.53;;;;;;;-8.93;92.08;99427.81;5075083;28;20028;-80
2021/12/27 02:30:59;;;;;;;87.38;42.20;;;;;;;-8.91;92.23;99432.91;5073632;28;20031;-80
2021/12/27 02:33:24;;;;;;;92.93;41.22;;;;;;;-8.96;92.49;99421.84;5075064;28;20035;-80
2021/12/27 02:35:54;;;;;;;87.97;40.05;;;;;;;-8.92;93.07;99428.69;5072002;28;20120;-80
2021/12/27 02:38:24;;;;;;;92.13;41.15;;;;;;;-9.02;92.53;99409.03;5055596;28;20479;-80
2021/12/27 02:40:52;;;;;;;104.20;41.33;;;;;;;-9.13;92.86;99393.63;5072486;28;20044;-81
2021/12/27 02:43:21;;;;;;;87.38;39.60;;;;;;;-9.02;93.25;99412.41;5055461;28;20036;-81
2021/12/27 02:45:48;;;;;;;90.45;39.65;;;;;;;-8.99;93.13;99419.22;5071982;28;20111;-80
2021/12/27 02:48:15;;;;;;;87.68;38.42;;;;;;;-9.15;92.71;99393.56;5072221;28;20120;-81
2021/12/27 02:50:43;;;;;;;98.55;45.13;;;;;;;-8.97;92.60;99410.00;5055374;28;20060;-81
2021/12/27 02:53:09;;;;;;;81.53;35.92;;;;;;;-9.01;92.63;99404.06;5072211;28;20036;-81
2021/12/27 02:55:35;;;;;;;83.93;36.03;;;;;;;-8.98;93.07;99415.88;5072176;28;20040;-80
2021/12/27 02:58:00;;;;;;;81.25;36.85;;;;;;;-8.98;93.25;99405.78;5071592;28;20056;-81
2021/12/27 03:00:29;;;;;;;88.97;36.10;;;;;;;-8.94;92.39;99410.94;5071966;28;20488;-80
2021/12/27 03:02:56;;;;;;;81.70;34.05;;;;;;;-9.03;92.40;99392.19;5071765;28;20082;-80
2021/12/27 03:05:24;;;;;;;84.63;35.88;;;;;;;-8.96;92.58;99406.69;5055117;28;20515;-81
2021/12/27 03:07:51;;;;;;;80.50;35.78;;;;;;;-8.91;92.72;99417.75;5071025;28;20045;-80
2021/12/27 03:10:19;;;;;;;69.78;34.15;;;;;;;-9.02;92.59;99388.84;5072833;28;20498;-81
2021/12/27 03:12:46;;;;;;;80.60;36.22;;;;;;;-8.92;92.75;99404.28;5073734;28;20028;-81
2021/12/27 03:15:13;;;;;;;76.88;33.63;;;;;;;-8.91;92.38;99400.09;5074399;28;20024;-81
2021/12/27 03:17:41;;;;;;;81.07;34.53;;;;;;;-8.94;92.67;99402.53;5072863;28;20039;-80
2021/12/27 03:20:08;;;;;;;74.15;32.92;;;;;;;-9.08;92.63;99375.25;5073919;28;20082;-80
2021/12/27 03:22:33;;;;;;;70.47;30.42;;;;;;;-8.90;92.53;99394.22;5072665;28;20024;-80
2021/12/27 03:25:00;;;;;;;72.75;32.88;;;;;;;-8.92;92.43;99390.81;5073679;28;20035;-81
2021/12/27 03:27:26;;;;;;;74.72;31.95;;;;;;;-9.03;92.89;99372.84;5073919;28;20040;-81
2021/12/27 03:29:51;;;;;;;73.15;31.88;;;;;;;-9.01;92.87;99376.28;5072581;28;20031;-80
2021/12/27 03:32:18;;;;;;;70.82;30.92;;;;;;;-8.89;92.24;99381.66;5072705;28;20123;-80
2021/12/27 03:34:53;;;;;;;71.45;31.17;;;;;;;-8.91;92.39;99377.38;5072364;28;20036;-81
2021/12/27 03:37:20;;;;;;;73.55;32.53;;;;;;;-8.76;92.08;99394.59;5073710;28;20039;-80
2021/12/27 03:39:46;;;;;;;61.30;29.75;;;;;;;-8.77;92.22;99390.34;5073769;28;20032;-80
2021/12/27 03:42:11;;;;;;;71.40;33.25;;;;;;;-8.80;92.46;99381.06;5074129;28;20035;-80
2021/12/27 03:44:36;;;;;;;62.45;28.65;;;;;;;-8.84;92.32;99381.78;5072947;28;20090;-80
2021/12/27 03:47:02;;;;;;;70.18;31.20;;;;;;;-8.86;93.38;99383.41;5073685;28;20028;-81
2021/12/27 03:49:27;;;;;;;66.80;28.45;;;;;;;-8.87;92.74;99396.84;5072511;28;20437;-80
2021/12/27 03:51:53;;;;;;;65.85;31.17;;;;;;;-8.88;93.10;99388.41;5072130;28;20050;-80
2021/12/27 03:54:18;;;;;;;73.00;32.38;;;;;;;-8.90;93.02;99382.47;5073880;28;20052;-80
2021/12/27 03:56:44;;;;;;;78.63;35.15;;;;;;;-8.90;93.37;99384.97;5073419;28;20020;-81
2021/12/27 03:59:34;;;;;;;72.22;30.98;;;;;;;-8.87;93.71;99395.16;5073663;28;20024;-81
2021/12/27 04:01:59;;;;;;;78.80;31.60;;;;;;;-8.95;93.79;99383.16;5071935;28;20037;-81
2021/12/27 04:04:24;;;;;;;82.43;32.67;;;;;;;-8.90;93.77;99389.19;5071862;28;20039;-81
2021/12/27 04:06:50;;;;;;;73.80;32.13;;;;;;;-8.89;93.89;99393.41;5073062;28;20035;-81
2021/12/27 04:09:15;;;;;;;84.38;33.45;;;;;;;-9.01;94.26;99383.88;5073099;28;20104;-81
2021/12/27 04:11:41;;;;;;;70.63;31.65;;;;;;;-9.07;94.88;99387.06;5073176;28;20464;-81
2021/12/27 04:14:06;;;;;;;79.25;35.33;;;;;;;-9.02;95.08;99394.75;5072957;28;20031;-80
2021/12/27 04:16:32;;;;;;;96.03;35.88;;;;;;;-9.06;95.31;99396.34;5071816;28;20074;-81
2021/12/27 04:18:57;;;;;;;76.75;34.08;;;;;;;-9.08;95.46;99394.59;5072532;28;20124;-81
2021/12/27 04:21:23;;;;;;;86.30;37.88;;;;;;;-9.09;95.77;99393.75;5071594;28;20086;-81
2021/12/27 04:23:48;;;;;;;82.65;36.58;;;;;;;-9.22;95.95;99370.66;5072635;28;20028;-81
2021/12/27 04:26:13;;;;;;;76.78;35.45;;;;;;;-9.13;96.25;99391.94;5070997;28;20024;-81
2021/12/27 04:28:39;;;;;;;74.88;34.35;;;;;;;-9.22;96.67;99378.22;5071513;28;20032;-81
2021/12/27 04:31:04;;;;;;;82.18;35.42;;;;;;;-9.06;96.83;99395.47;5071165;28;20039;-81
2021/12/27 04:33:30;;;;;;;90.97;36.17;;;;;;;-9.17;96.79;99376.69;5072559;28;20103;-81
2021/12/27 04:35:55;;;;;;;86.05;37.85;;;;;;;-9.20;96.84;99376.59;5072325;28;20099;-81
2021/12/27 04:38:21;;;;;;;83.50;35.70;;;;;;;-9.19;97.44;99376.63;5071408;28;20027;-81
2021/12/27 04:40:49;;;;;;;85.18;36.53;;;;;;;-9.25;97.86;99365.53;5072360;28;20452;-81
2021/12/27 04:43:18;;;;;;;86.95;37.03;;;;;;;-9.31;98.09;99351.94;5071277;28;20114;-81
2021/12/27 04:45:45;;;;;;;79.68;36.60;;;;;;;-9.36;97.82;99348.41;5072209;28;20499;-81
2021/12/27 04:48:11;;;;;;;88.53;37.10;;;;;;;-9.27;97.96;99352.84;5070921;28;20025;-80
2021/12/27 04:50:37;;;;;;;82.35;37.58;;;;;;;-9.20;97.92;99362.31;5072520;28;20025;-80
2021/12/27 04:53:03;;;;;;;87.20;39.92;;;;;;;-9.23;98.01;99354.66;5072178;28;20024;-81
2021/12/27 04:55:30;;;;;;;88.47;39.53;;;;;;;-9.24;98.51;99355.47;5072336;28;20028;-81
2021/12/27 04:57:56;;;;;;;87.25;37.33;;;;;;;-9.21;98.80;99360.59;5072104;28;20149;-80
2021/12/27 05:00:21;;;;;;;84.15;36.90;;;;;;;-9.17;99.05;99364.06;5070983;28;20128;-80
2021/12/27 05:02:47;;;;;;;88.30;38.92;;;;;;;-9.20;99.07;99366.50;5070404;28;20111;-80
2021/12/27 05:05:13;;;;;;;79.78;35.25;;;;;;;-9.23;98.99;99351.28;5070989;28;20025;-81
2021/12/27 05:07:38;;;;;;;78.72;37.83;;;;;;;-9.36;99.35;99332.44;5072057;28;20391;-80
2021/12/27 05:10:05;;;;;;;76.25;35.22;;;;;;;-9.22;99.59;99363.09;5071953;28;20032;-81
2021/12/27 05:12:30;;;;;;;78.40;35.88;;;;;;;-9.26;99.82;99353.75;5072276;28;20158;-81
2021/12/27 05:14:56;;;;;;;73.95;34.35;;;;;;;-9.49;99.80;99316.13;5071773;28;20523;-81
2021/12/27 05:17:21;;;;;;;77.05;34.97;;;;;;;-9.34;100.00;99340.91;5070482;28;20056;-80
2021/12/27 05:19:47;;;;;;;87.93;36.13;;;;;;;-9.36;100.00;99332.44;5070600;28;20055;-80
2021/12/27 05:22:12;;;;;;;81.20;37.42;;;;;;;-9.24;100.00;99342.00;5072253;28;20111;-80
2021/12/27 05:24:38;;;;;;;81.57;39.33;;;;;;;-9.20;100.00;99348.84;5072077;28;20028;-80
2021/12/27 05:27:03;;;;;;;89.55;36.92;;;;;;;-9.24;100.00;99342.00;5071733;28;20037;-80
2021/12/27 05:29:29;;;;;;;97.38;41.20;;;;;;;-9.29;100.00;99349.44;5071902;28;20031;-80
2021/12/27 05:31:58;;;;;;;401.13;130.95;;;;;;;-9.29;100.00;99331.81;5071495;28;20108;-80
2021/12/27 05:34:24;;;;;;;423.30;131.52;;;;;;;-9.27;100.00;99339.41;5070703;28;20098;-80
2021/12/27 05:36:49;;;;;;;171.30;54.10;;;;;;;-9.29;100.00;99334.31;5071818;28;20437;-80
2021/12/27 05:39:20;;;;;;;91.80;38.83;;;;;;;-9.27;100.00;99336.88;5071824;28;20025;-80
2021/12/27 05:41:46;;;;;;;91.30;39.00;;;;;;;-9.47;100.00;99301.03;5071478;28;20143;-80
2021/12/27 05:44:12;;;;;;;92.47;40.08;;;;;;;-9.42;100.00;99312.97;5070390;28;20027;-81
2021/12/27 05:46:37;;;;;;;94.65;40.70;;;;;;;-9.39;100.00;99333.22;5070223;28;20116;-80
2021/12/27 05:49:03;;;;;;;86.63;39.47;;;;;;;-9.44;100.00;99317.09;5071440;28;20488;-80
2021/12/27 05:51:28;;;;;;;255.90;95.05;;;;;;;-9.34;100.00;99336.72;5070640;28;20090;-81
2021/12/27 05:53:54;;;;;;;346.65;104.57;;;;;;;-9.36;100.00;99325.72;5071432;28;20029;-80
2021/12/27 05:56:19;;;;;;;132.77;48.22;;;;;;;-9.38;100.00;99332.41;5071657;28;20064;-80
2021/12/27 05:58:45;;;;;;;109.70;43.00;;;;;;;-9.37;100.00;99334.09;5071086;28;20094;-81
2021/12/27 06:01:11;;;;;;;91.30;39.58;;;;;;;-9.32;100.00;99347.69;5071359;28;20031;-80
2021/12/27 06:03:36;;;;;;;77.82;37.00;;;;;;;-9.46;100.00;99321.25;5070236;28;20518;-76
2021/12/27 06:06:02;;;;;;;81.57;39.50;;;;;;;-9.39;100.00;99312.19;5071454;28;20052;-76
2021/12/27 06:08:27;;;;;;;93.88;40.63;;;;;;;-9.30;100.00;99323.38;5071550;28;20531;-76
2021/12/27 06:10:52;;;;;;;82.38;40.38;;;;;;;-9.12;100.00;99332.25;5071262;28;20077;-76
2021/12/27 06:13:18;;;;;;;110.20;48.95;;;;;;;-9.12;100.00;99312.06;5071418;28;20029;-76
2021/12/27 06:15:43;;;;;;;113.88;47.60;;;;;;;-9.05;100.00;99345.06;5071084;28;20055;-80
2021/12/27 06:18:09;;;;;;;94.55;41.45;;;;;;;-9.10;100.00;99335.66;5070242;28;20483;-81
2021/12/27 06:20:34;;;;;;;117.40;49.47;;;;;;;-9.32;100.00;99311.53;5071535;28;20103;-81
2021/12/27 06:22:59;;;;;;;92.63;38.95;;;;;;;-9.30;100.00;99307.41;5071094;28;20524;-81
2021/12/27 06:25:26;;;;;;;96.28;41.53;;;;;;;-9.38;100.00;99312.22;5048650;28;20049;-81
2021/12/27 06:27:51;;;;;;;88.18;40.72;;;;;;;-9.24;100.00;99340.34;5031901;28;20064;-80
2021/12/27 06:30:18;;;;;;;86.15;40.28;;;;;;;-9.32;100.00;99339.28;5032008;28;20037;-81
2021/12/27 06:32:44;;;;;;;88.55;40.45;;;;;;;-9.39;100.00;99332.38;5031806;28;20035;-80
2021/12/27 06:35:11;;;;;;;96.05;42.58;;;;;;;-9.39;100.00;99330.69;5032002;28;20033;-81
2021/12/27 06:37:39;;;;;;;93.20;42.63;;;;;;;-9.40;100.00;99338.19;5031958;28;20032;-81
2021/12/27 06:40:05;;;;;;;93.85;41.08;;;;;;;-9.46;100.00;99338.03;5048545;28;20520;-80
2021/12/27 06:42:31;;;;;;;89.57;39.53;;;;;;;-9.54;100.00;99327.75;5048662;28;20029;-80
2021/12/27 06:44:56;;;;;;;80.07;37.13;;;;;;;-9.45;100.00;99338.06;5031719;28;20041;-81
2021/12/27 06:47:22;;;;;;;88.28;38.33;;;;;;;-9.46;100.00;99346.47;5048731;28;20037;-81
2021/12/27 06:49:48;;;;;;;85.55;38.97;;;;;;;-9.50;100.00;99338.78;5052063;28;20064;-80
2021/12/27 06:52:14;;;;;;;84.65;38.58;;;;;;;-9.62;100.00;99321.63;5052218;28;20396;-81
2021/12/27 06:54:40;;;;;;;83.13;38.40;;;;;;;-9.59;100.00;99326.75;5052264;28;20036;-81
2021/12/27 06:57:06;;;;;;;82.20;39.67;;;;;;;-9.46;100.00;99346.47;5069330;28;20132;-81
2021/12/27 06:59:32;;;;;;;77.40;38.20;;;;;;;-9.56;100.00;99330.22;5074435;28;20100;-81
2021/12/27 07:01:59;;;;;;;87.47;38.97;;;;;;;-9.61;100.00;99318.28;5074358;28;20116;-81
2021/12/27 07:04:24;;;;;;;74.10;36.47;;;;;;;-9.63;100.00;99323.28;5073176;28;20021;-81
2021/12/27 07:06:49;;;;;;;82.97;38.65;;;;;;;-9.51;100.00;99348.00;5072850;28;20020;-81
2021/12/27 07:09:15;;;;;;;81.35;37.83;;;;;;;-9.56;100.00;99336.94;5074363;28;20036;-80
2021/12/27 07:11:41;;;;;;;83.18;39.38;;;;;;;-9.63;100.00;99324.97;5072956;28;20028;-81
2021/12/27 07:14:07;;;;;;;88.28;40.88;;;;;;;-9.48;100.00;99339.66;5072622;28;20074;-80
2021/12/27 07:16:32;;;;;;;70.88;35.72;;;;;;;-9.60;100.00;99327.59;5074455;28;20506;-81
2021/12/27 07:18:58;;;;;;;84.57;40.55;;;;;;;-9.42;100.00;99349.94;5073908;28;20491;-81
2021/12/27 07:21:23;;;;;;;81.30;38.45;;;;;;;-9.37;100.00;99346.72;5072796;28;20373;-81
2021/12/27 07:23:49;;;;;;;91.50;41.80;;;;;;;-9.47;100.00;99334.69;5074178;28;20032;-81
2021/12/27 07:26:14;;;;;;;87.05;38.60;;;;;;;-9.35;100.00;99342.59;5072741;28;20136;-81
2021/12/27 07:28:40;;;;;;;89.15;41.20;;;;;;;-9.40;100.00;99335.69;5072559;28;20115;-81
2021/12/27 07:31:07;;;;;;;90.13;41.40;;;;;;;-9.56;100.00;99301.66;5072547;28;20029;-81
2021/12/27 07:33:33;;;;;;;88.57;41.47;;;;;;;-9.33;100.00;99332.53;5072688;28;20024;-81
2021/12/27 07:35:58;;;;;;;84.60;40.55;;;;;;;-9.24;100.00;99342.84;5072325;28;20470;-81
2021/12/27 07:38:44;;;;;;;94.68;44.70;;;;;;;-9.45;100.00;99286.81;5071068;28;20024;-82
2021/12/27 07:41:10;;;;;;;132.65;68.85;;;;;;;-9.22;100.00;99310.97;5054401;28;20083;-81
2021/12/27 07:43:35;;;;;;;99.68;48.13;;;;;;;-9.07;100.00;99308.84;5071374;28;20648;-81
2021/12/27 07:46:01;;;;;;;112.25;47.95;;;;;;;-8.80;100.00;99330.56;5054170;28;20032;-81
2021/12/27 07:48:26;;;;;;;86.75;43.90;;;;;;;-8.62;100.00;99323.44;5071075;28;20036;-81
2021/12/27 07:50:53;;;;;;;106.30;49.40;;;;;;;-8.50;100.00;99338.06;5070849;28;20040;-81
2021/12/27 07:53:19;;;;;;;88.50;39.92;;;;;;;-8.44;100.00;99324.72;5054245;28;20037;-81
2021/12/27 07:55:44;;;;;;;83.65;41.20;;;;;;;-8.27;100.00;99320.03;5070774;28;20032;-81
2021/12/27 07:58:11;;;;;;;85.05;41.20;;;;;;;-8.19;100.00;99324.44;5053360;28;20066;-82
2021/12/27 08:00:36;;;;;;;134.57;76.68;;;;;;;-8.17;100.00;99321.97;5036171;28;20429;-81
2021/12/27 08:03:02;;;;;;;90.55;43.85;;;;;;;-8.16;100.00;99309.34;5070482;28;20182;-81
2021/12/27 08:05:27;;;;;;;86.63;41.75;;;;;;;-8.09;100.00;99307.78;5070972;28;20067;-81
2021/12/27 08:07:53;;;;;;;104.95;47.95;;;;;;;-7.99;100.00;99298.75;5070532;28;20778;-81
2021/12/27 08:10:19;;;;;;;87.07;41.78;;;;;;;-7.90;100.00;99304.84;5071442;28;20119;-81
2021/12/27 08:12:44;;;;;;;84.72;39.30;;;;;;;-7.91;100.00;99285.47;5072972;28;20025;-81
2021/12/27 08:15:12;;;;;;;89.95;41.83;;;;;;;-7.78;100.00;99300.06;5073073;28;20029;-81
2021/12/27 08:17:39;;;;;;;87.57;40.90;;;;;;;-7.77;100.00;99300.91;5072850;28;20122;-80
2021/12/27 08:20:06;;;;;;;84.38;41.92;;;;;;;-7.78;100.00;99292.47;5071589;28;20029;-81
2021/12/27 08:22:32;;;;;;;88.47;41.42;;;;;;;-7.69;100.00;99288.44;5073054;28;20028;-81
2021/12/27 08:24:58;;;;;;;82.85;40.20;;;;;;;-7.64;100.00;99290.22;5072470;28;20585;-81
2021/12/27 08:27:26;;;;;;;73.95;37.95;;;;;;;-7.64;100.00;99296.97;5071668;28;20038;-81
2021/12/27 08:29:52;;;;;;;73.30;37.58;;;;;;;-7.58;100.00;99307.22;5072720;28;20121;-81
2021/12/27 08:32:18;;;;;;;74.13;35.38;;;;;;;-7.64;100.00;99289.38;5071523;28;20449;-81
2021/12/27 08:34:44;;;;;;;77.93;37.00;;;;;;;-7.48;100.00;99323.44;5071130;28;20108;-81
2021/12/27 08:37:10;;;;;;;71.05;38.22;;;;;;;-7.51;100.00;99308.19;5072899;28;20107;-80
2021/12/27 08:39:38;;;;;;;74.90;37.60;;;;;;;-7.67;100.00;99280.03;5071053;28;20025;-81
2021/12/27 08:42:07;;;;;;;76.70;36.78;;;;;;;-7.51;100.00;99301.44;5070971;28;20073;-80
2021/12/27 08:44:33;;;;;;;71.30;36.53;;;;;;;-7.51;100.00;99293.84;5072503;28;20070;-80
2021/12/27 08:46:58;;;;;;;76.57;37.10;;;;;;;-7.55;100.00;99282.81;5072540;28;20028;-81
2021/12/27 08:49:24;;;;;;;80.68;37.65;;;;;;;-7.70;100.00;99279.16;5071058;28;20028;-81
2021/12/27 08:51:49;;;;;;;65.85;33.72;;;;;;;-7.64;100.00;99296.97;5070684;28;20029;-81
2021/12/27 08:54:14;;;;;;;75.97;38.10;;;;;;;-7.71;100.00;99285.00;5072668;28;20341;-81
2021/12/27 08:56:40;;;;;;;80.05;37.85;;;;;;;-7.79;100.00;99262.97;5070854;28;20119;-81
2021/12/27 08:59:06;;;;;;;77.32;37.20;;;;;;;-7.69;100.00;99284.22;5071999;28;20050;-81
2021/12/27 09:01:31;;;;;;;72.57;36.78;;;;;;;-7.71;100.00;99279.94;5071019;28;20527;-81
2021/12/27 09:03:57;;;;;;;83.28;39.33;;;;;;;-7.72;100.00;99268.13;5066988;28;20029;-81
2021/12/27 09:06:22;;;;;;;76.07;38.20;;;;;;;-7.68;100.00;99273.28;5063958;28;20055;-82
2021/12/27 09:08:49;;;;;;;78.30;37.35;;;;;;;-7.60;100.00;99269.25;5061515;28;20035;-80
2021/12/27 09:11:14;;;;;;;73.68;37.30;;;;;;;-7.56;100.00;99271.00;5057602;28;20416;-80
2021/12/27 09:13:40;;;;;;;82.47;42.17;;;;;;;-7.51;100.00;99272.78;5060436;28;20074;-81
2021/12/27 09:16:07;;;;;;;69.45;36.00;;;;;;;-7.44;100.00;99272.06;5060194;28;20462;-81
2021/12/27 09:18:34;;;;;;;68.10;38.03;;;;;;;-7.44;100.00;99265.34;5060787;28;20108;-80
2021/12/27 09:21:01;;;;;;;72.13;34.80;;;;;;;-7.48;100.00;99252.59;5061639;28;20024;-81
2021/12/27 09:23:27;;;;;;;74.35;34.22;;;;;;;-7.35;100.00;99257.91;5057966;28;20032;-80
2021/12/27 09:25:52;;;;;;;76.82;39.08;;;;;;;-7.31;100.00;99252.09;5060054;28;20037;-81
2021/12/27 09:28:17;;;;;;;77.07;36.55;;;;;;;-7.43;100.00;99223.19;5057523;28;20444;-80
2021/12/27 09:30:44;;;;;;;71.70;36.25;;;;;;;-7.23;100.00;99252.22;5061036;28;20032;-79
2021/12/27 09:33:10;;;;;;;76.00;39.35;;;;;;;-7.16;100.00;99265.84;5057691;28;20063;-79
2021/12/27 09:35:36;;;;;;;66.68;34.72;;;;;;;-7.12;100.00;99260.00;5060915;28;20060;-79
2021/12/27 09:38:02;;;;;;;77.85;37.05;;;;;;;-7.18;100.00;99235.44;5059136;28;20039;-79
2021/12/27 09:40:28;;;;;;;69.90;35.67;;;;;;;-7.23;100.00;99216.81;5056350;28;20025;-79
2021/12/27 09:42:54;;;;;;;68.28;33.10;;;;;;;-7.03;100.00;99239.94;5059908;28;20074;-79
2021/12/27 09:45:20;;;;;;;63.28;33.15;;;;;;;-7.01;100.00;99235.75;5062168;28;20031;-79
2021/12/27 09:47:49;;;;;;;63.95;34.35;;;;;;;-6.98;100.00;99235.81;5059307;28;20032;-79
2021/12/27 09:50:27;;;;;;;64.50;35.05;;;;;;;-6.90;100.00;99225.81;5069009;28;20043;-80
2021/12/27 09:52:53;;;;;;;61.42;31.70;;;;;;;-6.90;100.00;99210.63;5060166;28;20491;-80
2021/12/27 09:55:19;;;;;;;67.80;34.47;;;;;;;-6.76;100.00;99226.03;5069415;28;20056;-79
2021/12/27 09:57:44;;;;;;;66.40;33.47;;;;;;;-6.87;100.00;99200.50;5102568;28;20047;-81
2021/12/27 10:00:11;;;;;;;68.47;34.33;;;;;;;-6.71;100.00;99220.19;5092574;28;20493;-81
2021/12/27 10:02:40;;;;;;;58.75;31.52;;;;;;;-6.64;100.00;99223.69;5092505;28;20117;-80
2021/12/27 10:05:06;;;;;;;66.78;33.65;;;;;;;-6.65;100.00;99210.16;5087932;28;20028;-81
2021/12/27 10:07:35;;;;;;;63.08;33.40;;;;;;;-6.62;100.00;99211.88;5063630;28;20040;-81
2021/12/27 10:10:01;;;;;;;74.65;33.40;;;;;;;-6.68;100.00;99199.13;5100281;28;20482;-82
2021/12/27 10:12:30;;;;;;;63.72;33.92;;;;;;;-6.69;100.00;99174.66;5098302;28;20032;-81
2021/12/27 10:15:00;;;;;;;68.15;33.13;;;;;;;-6.59;100.00;99189.13;5078812;28;20032;-82
2021/12/27 10:17:29;;;;;;;69.25;34.90;;;;;;;-6.59;100.00;99184.06;5085741;28;20040;-82
2021/12/27 10:19:55;;;;;;;67.53;34.10;;;;;;;-6.51;100.00;99186.72;5079758;28;20115;-82
2021/12/27 10:22:24;;;;;;;66.10;32.58;;;;;;;-6.44;100.00;99189.34;5087963;28;20040;-82
2021/12/27 10:24:53;;;;;;;72.85;34.30;;;;;;;-6.49;100.00;99175.75;5083126;28;20407;-82
2021/12/27 10:27:19;;;;;;;64.88;34.42;;;;;;;-6.47;100.00;99181.72;5095941;28;20034;-81
2021/12/27 10:29:45;;;;;;;74.95;34.05;;;;;;;-6.39;100.00;99179.28;5093498;28;20134;-82
2021/12/27 10:32:16;;;;;;;77.03;37.65;;;;;;;-6.32;100.00;99181.06;5094232;28;20039;-82
2021/12/27 10:34:46;;;;;;;64.97;33.97;;;;;;;-6.31;100.00;99167.56;5095291;28;20107;-82
2021/12/27 10:37:20;;;;;;;66.13;34.25;;;;;;;-6.25;100.00;99170.16;5095369;28;20028;-82
2021/12/27 10:39:57;;;;;;;68.10;33.33;;;;;;;-6.22;100.00;99156.69;5093612;28;20555;-82
2021/12/27 10:42:38;;;;;;;76.38;34.45;;;;;;;-6.10;100.00;99172.06;5082132;28;20028;-91
2021/12/27 10:45:12;;;;;;;71.32;35.17;;;;;;;-6.19;100.00;99138.97;5074714;28;20029;-82
2021/12/27 10:47:42;;;;;;;57.17;32.80;;;;;;;-6.03;100.00;99163.69;5074882;28;20035;-79
2021/12/27 10:50:18;;;;;;;67.55;32.65;;;;;;;-6.01;100.00;99153.56;5074204;28;20028;-85
2021/12/27 10:53:00;;;;;;;69.82;33.97;;;;;;;-5.93;100.00;99162.13;5074381;28;20032;-84
2021/12/27 10:55:47;;;;;;;67.22;33.65;;;;;;;-5.87;100.00;99155.38;5074821;28;20032;-85
2021/12/27 10:58:18;;;;;;;67.40;31.52;;;;;;;-5.81;100.00;99152.94;5092013;28;20056;-84
2021/12/27 11:00:47;;;;;;;64.80;30.35;;;;;;;-5.77;98.66;99158.91;5092063;28;20044;-84
2021/12/27 11:03:28;;;;;;;60.70;29.67;;;;;;;-5.82;100.00;99132.59;5092121;28;20032;-83
2021/12/27 11:05:55;;;;;;;59.15;30.50;;;;;;;-5.78;98.69;99149.56;5091974;28;20041;-82
2021/12/27 11:08:21;;;;;;;58.60;31.00;;;;;;;-5.71;98.74;99147.97;5092221;28;20067;-82
2021/12/27 11:10:46;;;;;;;64.80;31.33;;;;;;;-5.88;98.83;99120.72;5075031;28;20093;-81
2021/12/27 11:13:12;;;;;;;62.40;31.13;;;;;;;-5.65;98.22;99148.84;5092129;28;20032;-82
2021/12/27 11:15:39;;;;;;;62.13;32.03;;;;;;;-5.57;99.06;99157.38;5096066;28;20024;-82
2021/12/27 11:18:05;;;;;;;68.30;33.03;;;;;;;-5.52;98.83;99162.50;5112128;28;20035;-81